CLO weather

Alfonso Bonilla Aragon International Airport
Cali, Valle del Cauca Department, Colombia

Public forecast

Using degrees Celsius for public forecast. Weather courtesy of forecast.io.

METAR (pilot weather report)

Retrieved 2017/12/15 16:00 UTC (36 minutes ago):

SKCL 151600Z 07003KT 9999 FEW020 28/19 A2999

TAF (pilot weather forecast)

Forecast is more than 12 hours old.

Retrieved 2017/12/14 18:18 UTC (22 hours ago):

TAF SKCL 141700Z 141818 35008KT 9999 FEW020 BKN250 PROB40 TEMPO 1422/1424 9000 VCSH SCT017TCU BECMG 1500/1502 VRB02KT SCT017 BKN120 TEMPO 1510/1513 7000 VCFG TX31/1419Z TN17/1511Z